Amesbury, Massachusetts
Current Conditions -  °F | °C
As of 10:54 PM on Thursday 27 Nov 2014 (Local Time) from KLWM Reporting Station
Light Snow Light Snow  
Wind Chill: -5°   Ceiling: 900
Heat Index: -2°   Visibility: 3mi
Dew Point: -3°   Wind: 5mph
Humidity: 92%   Direction: 330°NNW
Pressure: 30.03"   Gusts: NA
Location:  42.86°N, 70.93°W
Report Text: KLWM 280354Z 33004KT 3SM -SN BR BKN009 OVC031 M02/M03 A3003 RMK AO2 SLP169 P0000 T10171028
Loading
Personal Weather Stations






























Interactive Weather Map New forecast layout! Learn more

10-Day Weather Forecast

Advertisements
Track Severe Weather on mobile